createdAt,value
2017-12-20T00:00:37.803Z,6.91
2017-12-20T00:03:07.065Z,6.93
2017-12-20T00:05:36.255Z,6.92
2017-12-20T00:08:05.527Z,6.95
2017-12-20T00:10:34.706Z,6.94
2017-12-20T00:13:05.357Z,6.90
2017-12-20T00:15:37.483Z,6.93
2017-12-20T00:18:06.697Z,6.91
2017-12-20T00:20:35.879Z,6.92
2017-12-20T00:23:05.078Z,6.92
2017-12-20T00:25:34.283Z,6.93
2017-12-20T00:28:03.499Z,6.96
2017-12-20T00:30:32.745Z,6.97
2017-12-20T00:33:01.956Z,6.96
2017-12-20T00:35:31.146Z,6.89
2017-12-20T00:38:00.359Z,6.90
2017-12-20T00:40:29.808Z,6.90
2017-12-20T00:42:59.907Z,6.92
2017-12-20T00:45:29.127Z,6.93
2017-12-20T00:47:59.088Z,6.99
2017-12-20T00:50:28.316Z,7.02
2017-12-20T00:52:57.492Z,6.99
2017-12-20T00:55:26.801Z,6.93
2017-12-20T00:57:55.983Z,6.96
2017-12-20T01:00:25.198Z,6.98
2017-12-20T01:02:54.503Z,6.97
2017-12-20T01:05:23.661Z,6.95
2017-12-20T01:07:52.861Z,6.99
2017-12-20T01:10:22.051Z,6.99
2017-12-20T01:12:51.270Z,7.01
2017-12-20T01:15:20.436Z,6.94
2017-12-20T01:17:49.647Z,6.93
2017-12-20T01:20:18.860Z,6.94
2017-12-20T01:22:48.051Z,6.92
2017-12-20T01:25:17.266Z,6.93
2017-12-20T01:27:46.465Z,6.88
2017-12-20T01:30:15.692Z,6.90
2017-12-20T01:32:45.807Z,6.91
2017-12-20T01:35:14.966Z,6.92
2017-12-20T01:37:44.180Z,6.86
2017-12-20T01:40:13.439Z,6.81
2017-12-20T01:42:42.634Z,6.83
2017-12-20T01:45:11.883Z,6.83
2017-12-20T01:47:41.058Z,6.83
2017-12-20T01:50:10.254Z,6.83
2017-12-20T01:52:39.551Z,6.84
2017-12-20T01:55:08.754Z,6.79
2017-12-20T01:57:37.947Z,6.78
2017-12-20T02:00:07.188Z,6.79
2017-12-20T02:02:36.379Z,6.77
2017-12-20T02:05:06.351Z,6.81
2017-12-20T02:07:35.560Z,6.83
2017-12-20T02:10:04.740Z,6.83
2017-12-20T02:12:33.956Z,6.85
2017-12-20T02:15:03.165Z,6.90
2017-12-20T02:17:32.387Z,6.85
2017-12-20T02:20:02.340Z,6.88
2017-12-20T02:22:31.520Z,6.88
2017-12-20T02:25:00.695Z,6.94
2017-12-20T02:27:30.775Z,6.92
2017-12-20T02:29:59.972Z,6.93
2017-12-20T02:32:29.155Z,6.94
2017-12-20T02:34:58.375Z,6.93
2017-12-20T02:37:27.564Z,6.96
2017-12-20T02:39:56.834Z,6.99
2017-12-20T02:42:26.031Z,6.99
2017-12-20T02:44:55.243Z,7.01
2017-12-20T02:47:24.428Z,7.02
2017-12-20T02:49:53.718Z,7.03
2017-12-20T02:52:22.894Z,7.04
2017-12-20T02:54:53.299Z,7.07
2017-12-20T02:57:22.490Z,7.10
2017-12-20T02:59:51.677Z,7.12
2017-12-20T03:02:20.939Z,7.13
2017-12-20T03:04:50.114Z,7.13
2017-12-20T03:07:20.303Z,7.08
2017-12-20T03:09:49.488Z,7.09
2017-12-20T03:12:18.687Z,7.11
2017-12-20T03:14:47.863Z,7.12
2017-12-20T03:17:17.915Z,7.13
2017-12-20T03:19:47.099Z,7.13
2017-12-20T03:22:16.324Z,7.13
2017-12-20T03:24:46.278Z,7.09
2017-12-20T03:27:15.544Z,7.08
2017-12-20T03:29:44.680Z,7.08
2017-12-20T03:32:14.718Z,7.08
2017-12-20T03:34:43.923Z,7.06
2017-12-20T03:37:13.143Z,7.01
2017-12-20T03:39:43.192Z,6.97
2017-12-20T03:42:12.379Z,6.99
2017-12-20T03:44:41.589Z,7.02
2017-12-20T03:47:10.835Z,6.99
2017-12-20T03:49:40.072Z,6.99
2017-12-20T03:52:09.259Z,6.98
2017-12-20T03:54:39.497Z,6.99
2017-12-20T03:57:08.675Z,7.00
2017-12-20T03:59:38.654Z,7.01
2017-12-20T04:02:07.846Z,6.98
2017-12-20T04:04:37.214Z,7.02
2017-12-20T04:07:06.439Z,7.07
2017-12-20T04:09:35.645Z,7.09
2017-12-20T04:12:04.851Z,7.10
2017-12-20T04:14:34.063Z,7.11
2017-12-20T04:17:04.049Z,7.10
2017-12-20T04:19:33.259Z,7.10
2017-12-20T04:22:02.514Z,7.11
2017-12-20T04:24:31.716Z,7.11
2017-12-20T04:27:00.951Z,7.17
2017-12-20T04:29:30.188Z,7.16
2017-12-20T04:32:00.187Z,7.18
2017-12-20T04:34:29.399Z,7.19
2017-12-20T04:36:58.836Z,7.22
2017-12-20T04:39:28.058Z,7.24
2017-12-20T04:41:57.244Z,7.22
2017-12-20T04:44:26.447Z,7.22
2017-12-20T04:46:55.778Z,7.26
2017-12-20T04:49:25.895Z,7.28
2017-12-20T04:51:56.053Z,7.28
2017-12-20T04:54:25.299Z,7.27
2017-12-20T04:56:54.508Z,7.31
2017-12-20T04:59:24.506Z,7.31
2017-12-20T05:01:54.007Z,7.31
2017-12-20T05:04:23.205Z,7.34
2017-12-20T05:06:52.412Z,7.36
2017-12-20T05:09:21.608Z,7.36
2017-12-20T05:11:51.119Z,7.30
2017-12-20T05:14:20.320Z,7.31
2017-12-20T05:16:49.518Z,7.29
2017-12-20T05:19:19.502Z,7.29
2017-12-20T05:21:48.735Z,7.30
2017-12-20T05:24:17.911Z,7.31
2017-12-20T05:26:47.103Z,7.31
2017-12-20T05:29:16.311Z,7.28
2017-12-20T05:31:45.503Z,7.27
2017-12-20T05:34:14.712Z,7.24
2017-12-20T05:36:44.061Z,7.23
2017-12-20T05:39:13.364Z,7.22
2017-12-20T05:41:42.557Z,7.20
2017-12-20T05:44:11.742Z,7.21
2017-12-20T05:46:40.955Z,7.20
2017-12-20T05:49:10.163Z,7.17
2017-12-20T05:51:39.350Z,7.15
2017-12-20T05:54:08.556Z,7.10
2017-12-20T05:56:37.806Z,7.11
2017-12-20T05:59:07.891Z,7.09
2017-12-20T06:01:37.114Z,7.09
2017-12-20T06:04:07.094Z,7.08
2017-12-20T06:06:36.322Z,7.08
2017-12-20T06:09:06.294Z,7.09
2017-12-20T06:11:35.501Z,7.08
2017-12-20T06:14:04.702Z,7.11
2017-12-20T06:16:33.886Z,7.15
2017-12-20T06:19:03.090Z,7.18
2017-12-20T06:21:32.311Z,7.18
2017-12-20T06:24:01.519Z,7.18
2017-12-20T06:26:30.794Z,7.22
2017-12-20T06:29:00.004Z,7.24
2017-12-20T06:31:29.202Z,7.26
2017-12-20T06:33:58.407Z,7.29
2017-12-20T06:36:27.615Z,7.37
2017-12-20T06:38:56.822Z,7.37
2017-12-20T06:41:26.790Z,7.33
2017-12-20T06:43:56.007Z,7.31
2017-12-20T06:46:25.344Z,7.32
2017-12-20T06:48:55.320Z,7.36
2017-12-20T06:51:24.524Z,7.32
2017-12-20T06:53:53.724Z,7.29
2017-12-20T06:56:22.934Z,7.29
2017-12-20T06:58:52.131Z,7.29
2017-12-20T07:01:22.199Z,7.27
2017-12-20T07:03:51.389Z,7.28
2017-12-20T07:06:20.604Z,7.33
2017-12-20T07:08:49.973Z,7.32
2017-12-20T07:11:19.168Z,7.32
2017-12-20T07:13:48.391Z,7.33
2017-12-20T07:16:17.602Z,7.38
2017-12-20T07:18:46.825Z,7.42
2017-12-20T07:21:16.024Z,7.37
2017-12-20T07:23:45.235Z,7.35
2017-12-20T07:26:15.208Z,7.37
2017-12-20T07:28:44.496Z,7.40
2017-12-20T07:31:13.788Z,7.44
2017-12-20T07:33:43.037Z,7.47
2017-12-20T07:36:12.282Z,7.48
2017-12-20T07:38:41.499Z,7.50
2017-12-20T07:41:10.698Z,7.47
2017-12-20T07:43:39.974Z,7.48
2017-12-20T07:46:09.167Z,7.46
2017-12-20T07:48:38.395Z,7.41
2017-12-20T07:51:07.618Z,7.43
2017-12-20T07:53:36.834Z,7.46
2017-12-20T07:56:06.811Z,7.50
2017-12-20T07:58:36.012Z,7.49
2017-12-20T08:01:05.213Z,7.48
2017-12-20T08:03:34.419Z,7.52
2017-12-20T08:06:03.630Z,7.53
2017-12-20T08:08:32.859Z,7.53
2017-12-20T08:11:02.013Z,7.52
2017-12-20T08:13:31.207Z,7.51
2017-12-20T08:16:00.410Z,7.52
2017-12-20T08:18:29.659Z,7.55
2017-12-20T08:20:58.887Z,7.56
2017-12-20T08:23:28.083Z,7.59
2017-12-20T08:25:57.286Z,7.59
2017-12-20T08:28:27.176Z,7.63
2017-12-20T08:30:56.391Z,7.63
2017-12-20T08:33:25.604Z,7.63
2017-12-20T08:35:54.767Z,7.63
2017-12-20T08:38:23.969Z,7.66
2017-12-20T08:40:53.159Z,7.65
2017-12-20T08:43:22.382Z,7.67
2017-12-20T08:45:51.654Z,7.72
2017-12-20T08:48:20.865Z,7.74
2017-12-20T08:50:50.072Z,7.75
2017-12-20T08:53:19.291Z,7.76
2017-12-20T08:55:49.256Z,7.73
2017-12-20T08:58:18.479Z,7.73
2017-12-20T09:00:47.682Z,7.73
2017-12-20T09:03:16.891Z,7.75
2017-12-20T09:05:46.151Z,7.80
2017-12-20T09:08:15.367Z,7.84
2017-12-20T09:10:44.568Z,7.86
2017-12-20T09:13:13.824Z,7.87
2017-12-20T09:15:43.038Z,7.88
2017-12-20T09:18:12.318Z,7.86
2017-12-20T09:20:41.518Z,7.89
2017-12-20T09:23:10.753Z,7.93
2017-12-20T09:25:39.931Z,7.98
2017-12-20T09:28:09.150Z,7.98
2017-12-20T09:30:38.350Z,7.98
2017-12-20T09:33:07.545Z,8.03
2017-12-20T09:35:36.730Z,8.08
2017-12-20T09:38:06.034Z,8.09
2017-12-20T09:40:35.214Z,8.14
2017-12-20T09:43:04.422Z,8.15
2017-12-20T09:45:33.649Z,8.14
2017-12-20T09:48:02.834Z,8.14
2017-12-20T09:50:32.047Z,8.20
2017-12-20T09:53:01.236Z,8.23
2017-12-20T09:55:30.450Z,8.32
2017-12-20T09:57:59.664Z,8.36
2017-12-20T10:00:29.648Z,8.39
2017-12-20T10:02:58.880Z,8.35
2017-12-20T10:05:28.074Z,8.25
2017-12-20T10:07:58.056Z,8.28
2017-12-20T10:10:27.339Z,8.26
2017-12-20T10:12:56.552Z,8.25
2017-12-20T10:15:25.770Z,8.22
2017-12-20T10:17:55.750Z,8.22
2017-12-20T10:20:24.955Z,8.21
2017-12-20T10:22:56.780Z,8.27
2017-12-20T10:25:25.984Z,8.28
2017-12-20T10:27:55.193Z,8.27
2017-12-20T10:30:24.492Z,8.23
2017-12-20T10:32:53.687Z,8.23
2017-12-20T10:35:22.876Z,8.24
2017-12-20T10:37:52.155Z,8.22
2017-12-20T10:40:21.392Z,8.28
2017-12-20T10:42:50.596Z,8.25
2017-12-20T10:45:19.822Z,8.24
2017-12-20T10:47:49.789Z,8.32
2017-12-20T10:50:19.016Z,8.38
2017-12-20T10:52:49.647Z,8.43
2017-12-20T10:55:18.853Z,8.48
2017-12-20T10:57:48.071Z,8.54
2017-12-20T11:00:18.037Z,8.56
2017-12-20T11:02:47.245Z,8.51
2017-12-20T11:05:16.578Z,8.49
2017-12-20T11:07:46.592Z,8.52
2017-12-20T11:10:16.581Z,8.57
2017-12-20T11:12:45.802Z,8.56
2017-12-20T11:15:15.804Z,8.53
2017-12-20T11:17:44.996Z,8.58
2017-12-20T11:20:14.190Z,8.58
2017-12-20T11:22:43.367Z,8.63
2017-12-20T11:25:12.580Z,8.63
2017-12-20T11:27:41.798Z,8.66
2017-12-20T11:30:11.796Z,8.70
2017-12-20T11:32:41.002Z,8.70
2017-12-20T11:35:10.487Z,8.66
2017-12-20T11:37:39.714Z,8.62
2017-12-20T11:40:08.923Z,8.61
2017-12-20T11:42:38.959Z,8.57
2017-12-20T11:45:08.107Z,8.51
2017-12-20T11:47:37.321Z,8.52
2017-12-20T11:50:06.516Z,8.54
2017-12-20T11:52:36.602Z,8.55
2017-12-20T11:55:05.786Z,8.58
2017-12-20T11:57:35.054Z,8.55
2017-12-20T12:00:04.324Z,8.61
2017-12-20T12:02:33.646Z,8.62
2017-12-20T12:05:02.819Z,8.63
2017-12-20T12:07:32.057Z,8.63
2017-12-20T12:10:01.282Z,8.64
2017-12-20T12:12:30.475Z,8.62
2017-12-20T12:14:59.694Z,8.61
2017-12-20T12:17:28.888Z,8.55
2017-12-20T12:19:58.131Z,8.55
2017-12-20T12:22:28.075Z,8.60
2017-12-20T12:24:57.286Z,8.60
2017-12-20T12:27:26.552Z,8.59
2017-12-20T12:29:55.760Z,8.62
2017-12-20T12:32:24.951Z,8.62
2017-12-20T12:34:54.291Z,8.62
2017-12-20T12:37:23.479Z,8.68
2017-12-20T12:39:52.693Z,8.67
2017-12-20T12:42:21.896Z,8.64
2017-12-20T12:44:51.098Z,8.65
2017-12-20T12:47:20.361Z,8.64
2017-12-20T12:49:49.630Z,8.67
2017-12-20T12:52:19.626Z,8.64
2017-12-20T12:54:49.643Z,8.59
2017-12-20T12:57:19.627Z,8.59
2017-12-20T12:59:48.840Z,8.57
2017-12-20T13:02:18.067Z,8.58
2017-12-20T13:04:47.283Z,8.56
2017-12-20T13:07:16.502Z,8.61
2017-12-20T13:09:45.711Z,8.61
2017-12-20T13:12:14.906Z,8.62
2017-12-20T13:14:44.107Z,8.58
2017-12-20T13:17:13.334Z,8.61
2017-12-20T13:19:43.319Z,8.62
2017-12-20T13:22:12.561Z,8.67
2017-12-20T13:24:42.566Z,8.72
2017-12-20T13:27:12.583Z,8.69
2017-12-20T13:29:41.824Z,8.67
2017-12-20T13:32:11.046Z,8.70
2017-12-20T13:34:40.302Z,8.70
2017-12-20T13:37:09.519Z,8.71
2017-12-20T13:39:38.769Z,8.69
2017-12-20T13:42:08.040Z,8.68
2017-12-20T13:44:37.219Z,8.58
2017-12-20T13:47:06.424Z,8.63
2017-12-20T13:49:35.647Z,8.69
2017-12-20T13:52:04.867Z,8.69
2017-12-20T13:54:34.866Z,8.70
2017-12-20T13:57:04.070Z,8.69
2017-12-20T13:59:33.286Z,8.73
2017-12-20T14:02:02.553Z,8.75
2017-12-20T14:04:31.782Z,8.75
2017-12-20T14:07:01.003Z,8.71
2017-12-20T14:09:30.279Z,8.77
2017-12-20T14:12:00.234Z,8.71
2017-12-20T14:14:29.484Z,8.72
2017-12-20T14:16:58.661Z,8.72
2017-12-20T14:19:27.846Z,8.72
2017-12-20T14:21:57.072Z,8.75
2017-12-20T14:24:26.259Z,8.73
2017-12-20T14:26:55.466Z,8.70
2017-12-20T14:29:25.424Z,8.71
2017-12-20T14:31:54.632Z,8.71
2017-12-20T14:34:23.884Z,8.66
2017-12-20T14:36:53.219Z,8.68
2017-12-20T14:39:22.461Z,8.69
2017-12-20T14:41:52.471Z,8.73
2017-12-20T14:44:21.799Z,8.75
2017-12-20T14:46:51.793Z,8.74
2017-12-20T14:49:20.990Z,8.75
2017-12-20T14:51:50.198Z,8.78
2017-12-20T14:54:20.288Z,8.80
2017-12-20T14:56:49.463Z,8.82
2017-12-20T14:59:18.700Z,8.85
2017-12-20T15:01:47.911Z,8.90
2017-12-20T15:04:17.932Z,8.89
2017-12-20T15:06:47.151Z,8.86
2017-12-20T15:09:16.419Z,8.87
2017-12-20T15:11:45.699Z,8.90
2017-12-20T15:14:14.942Z,8.93
2017-12-20T15:16:44.171Z,8.92
2017-12-20T15:19:13.390Z,8.85
2017-12-20T15:21:43.362Z,8.83
2017-12-20T15:24:12.613Z,8.84
2017-12-20T15:26:41.827Z,8.82
2017-12-20T15:29:11.816Z,8.86
2017-12-20T15:31:41.009Z,8.86
2017-12-20T15:34:10.208Z,8.85
2017-12-20T15:36:39.408Z,8.84
2017-12-20T15:39:08.839Z,8.87
2017-12-20T15:41:38.799Z,8.86
2017-12-20T15:44:08.035Z,8.86
2017-12-20T15:46:37.223Z,8.83
2017-12-20T15:49:06.420Z,8.84
2017-12-20T15:51:35.647Z,8.84
2017-12-20T15:54:05.603Z,8.81
2017-12-20T15:56:34.807Z,8.78
2017-12-20T15:59:04.015Z,8.78
2017-12-20T16:01:33.242Z,8.77
2017-12-20T16:04:02.429Z,8.75
2017-12-20T16:06:31.650Z,8.75
2017-12-20T16:09:01.619Z,8.75
2017-12-20T16:11:30.871Z,8.73
2017-12-20T16:14:00.092Z,8.72
2017-12-20T16:16:29.319Z,8.66
2017-12-20T16:18:58.651Z,8.63
2017-12-20T16:21:28.616Z,8.59
2017-12-20T16:23:57.926Z,8.58
2017-12-20T16:26:27.243Z,8.59
2017-12-20T16:28:56.455Z,8.60
2017-12-20T16:31:25.745Z,8.59
2017-12-20T16:33:54.976Z,8.60
2017-12-20T16:36:24.926Z,8.59
2017-12-20T16:38:54.141Z,8.55
2017-12-20T16:41:23.357Z,8.55
2017-12-20T16:43:52.816Z,8.62
2017-12-20T16:46:22.036Z,8.62
2017-12-20T16:48:51.224Z,8.64
2017-12-20T16:51:20.451Z,8.67
2017-12-20T16:53:49.684Z,8.67
2017-12-20T16:56:18.910Z,8.68
2017-12-20T16:58:48.132Z,8.70
2017-12-20T17:01:17.363Z,8.66
2017-12-20T17:03:47.338Z,8.66
2017-12-20T17:06:16.586Z,8.60
2017-12-20T17:08:46.577Z,8.60
2017-12-20T17:11:15.799Z,8.61
2017-12-20T17:13:45.772Z,8.59
2017-12-20T17:16:14.968Z,8.60
2017-12-20T17:18:44.182Z,8.62
2017-12-20T17:21:13.445Z,8.63
2017-12-20T17:23:43.379Z,8.57
2017-12-20T17:26:12.615Z,8.58
2017-12-20T17:28:42.617Z,8.57
2017-12-20T17:31:11.835Z,8.57
2017-12-20T17:33:41.852Z,8.59
2017-12-20T17:36:11.863Z,8.62
2017-12-20T17:38:41.873Z,8.65
2017-12-20T17:41:11.101Z,8.67
2017-12-20T17:43:40.314Z,8.68
2017-12-20T17:46:09.527Z,8.70
2017-12-20T17:48:38.758Z,8.70
2017-12-20T17:51:08.002Z,8.65
2017-12-20T17:53:37.267Z,8.68
2017-12-20T17:56:07.252Z,8.69
2017-12-20T17:58:36.494Z,8.66
2017-12-20T18:01:05.703Z,8.62
2017-12-20T18:03:34.890Z,8.66
2017-12-20T18:06:04.109Z,8.69
2017-12-20T18:08:33.303Z,8.69
2017-12-20T18:11:02.516Z,8.68
2017-12-20T18:13:31.732Z,8.71
2017-12-20T18:16:00.972Z,8.70
2017-12-20T18:18:30.200Z,8.64
2017-12-20T18:20:59.424Z,8.65
2017-12-20T18:23:28.634Z,8.60
2017-12-20T18:25:57.856Z,8.62
2017-12-20T18:28:27.844Z,8.60
2017-12-20T18:30:57.079Z,8.63
2017-12-20T18:33:26.288Z,8.65
2017-12-20T18:35:55.494Z,8.65
2017-12-20T18:38:24.802Z,8.69
2017-12-20T18:40:54.029Z,8.70
2017-12-20T18:43:23.247Z,8.74
2017-12-20T18:45:53.269Z,8.74
2017-12-20T18:48:22.490Z,8.72
2017-12-20T18:50:51.699Z,8.65
2017-12-20T18:53:20.970Z,8.60
2017-12-20T18:55:50.937Z,8.61
2017-12-20T18:58:20.174Z,8.64
2017-12-20T19:00:49.367Z,8.64
2017-12-20T19:03:19.378Z,8.66
2017-12-20T19:05:48.620Z,8.62
2017-12-20T19:08:17.842Z,8.64
2017-12-20T19:10:47.055Z,8.66
2017-12-20T19:13:16.300Z,8.67
2017-12-20T19:15:45.570Z,8.69
2017-12-20T19:18:14.815Z,8.69
2017-12-20T19:20:44.047Z,8.72
2017-12-20T19:23:14.082Z,8.72
2017-12-20T19:25:44.070Z,8.70
2017-12-20T19:28:13.302Z,8.73
2017-12-20T19:30:42.586Z,8.72
2017-12-20T19:33:11.864Z,8.70
2017-12-20T19:35:41.142Z,8.64
2017-12-20T19:38:10.526Z,8.67
2017-12-20T19:40:39.815Z,8.67
2017-12-20T19:43:09.268Z,8.68
2017-12-20T19:45:38.611Z,8.68
2017-12-20T19:48:08.769Z,8.69
2017-12-20T19:50:38.092Z,8.71
2017-12-20T19:53:07.553Z,8.69
2017-12-20T19:55:37.888Z,8.67
2017-12-20T19:58:07.335Z,8.69
2017-12-20T20:00:36.715Z,8.65
2017-12-20T20:03:06.108Z,8.66
2017-12-20T20:05:35.519Z,8.72
2017-12-20T20:08:05.112Z,8.75
2017-12-20T20:10:34.536Z,8.79
2017-12-20T20:13:04.064Z,8.82
2017-12-20T20:15:34.474Z,8.77
2017-12-20T20:18:03.965Z,8.82
2017-12-20T20:20:33.740Z,8.80
2017-12-20T20:23:03.190Z,8.76
2017-12-20T20:25:32.742Z,8.73
2017-12-20T20:28:02.989Z,8.67
2017-12-20T20:30:32.692Z,8.66
2017-12-20T20:33:02.297Z,8.71
2017-12-20T20:35:31.938Z,8.76
2017-12-20T20:38:01.415Z,8.76
2017-12-20T20:40:31.003Z,8.77
2017-12-20T20:43:00.507Z,8.83
2017-12-20T20:45:30.180Z,8.78
2017-12-20T20:48:00.661Z,8.73
2017-12-20T20:50:30.241Z,8.73
2017-12-20T20:53:00.451Z,8.72
2017-12-20T20:55:30.135Z,8.74
2017-12-20T20:57:59.690Z,8.69
2017-12-20T21:00:29.178Z,8.69
2017-12-20T21:02:58.837Z,8.66
2017-12-20T21:05:28.279Z,8.69
2017-12-20T21:07:58.561Z,8.70
2017-12-20T21:10:27.879Z,8.74
2017-12-20T21:12:57.202Z,8.71
2017-12-20T21:15:26.476Z,8.70
2017-12-20T21:17:55.704Z,8.73
2017-12-20T21:20:25.749Z,8.77
2017-12-20T21:22:54.954Z,8.77
2017-12-20T21:25:24.236Z,8.77
2017-12-20T21:27:53.576Z,8.78
2017-12-20T21:30:22.835Z,8.72
2017-12-20T21:32:52.071Z,8.67
2017-12-20T21:35:21.300Z,8.71
2017-12-20T21:37:51.332Z,8.64
2017-12-20T21:40:20.472Z,8.68
2017-12-20T21:42:49.722Z,8.72
2017-12-20T21:45:19.691Z,8.73
2017-12-20T21:47:48.931Z,8.74
2017-12-20T21:50:18.951Z,8.78
2017-12-20T21:52:48.187Z,8.78
2017-12-20T21:55:17.399Z,8.76
2017-12-20T21:57:46.639Z,8.78
2017-12-20T22:00:16.710Z,8.79
2017-12-20T22:02:45.896Z,8.78
2017-12-20T22:05:15.167Z,8.85
2017-12-20T22:07:44.395Z,8.81
2017-12-20T22:10:13.599Z,8.85
2017-12-20T22:12:42.827Z,8.82
2017-12-20T22:15:12.842Z,8.85
2017-12-20T22:17:42.124Z,8.84
2017-12-20T22:20:11.492Z,8.82
2017-12-20T22:22:41.587Z,8.86
2017-12-20T22:25:11.611Z,8.87
2017-12-20T22:27:40.781Z,8.84
2017-12-20T22:30:10.011Z,8.86
2017-12-20T22:32:39.246Z,8.89
2017-12-20T22:35:08.441Z,8.91
2017-12-20T22:37:37.651Z,8.94
2017-12-20T22:40:06.912Z,8.97
2017-12-20T22:42:36.180Z,8.98
2017-12-20T22:45:06.371Z,8.96
2017-12-20T22:47:35.632Z,8.96
2017-12-20T22:50:05.115Z,8.95
2017-12-20T22:52:34.351Z,8.95
2017-12-20T22:55:03.624Z,8.99
2017-12-20T22:57:33.626Z,9.03
2017-12-20T23:00:02.858Z,9.01
2017-12-20T23:02:32.054Z,8.99
2017-12-20T23:05:01.367Z,9.00
2017-12-20T23:07:30.608Z,9.05
2017-12-20T23:09:59.865Z,9.06
2017-12-20T23:12:29.188Z,9.05
2017-12-20T23:14:58.387Z,9.06
2017-12-20T23:17:27.709Z,9.07
2017-12-20T23:19:57.702Z,9.05
2017-12-20T23:22:26.921Z,9.01
2017-12-20T23:24:57.080Z,9.01
2017-12-20T23:27:26.291Z,9.01
2017-12-20T23:29:55.499Z,8.99
2017-12-20T23:32:24.705Z,8.99
2017-12-20T23:34:53.941Z,8.97
2017-12-20T23:37:23.943Z,8.97
2017-12-20T23:39:53.947Z,8.98
2017-12-20T23:42:23.187Z,9.03
2017-12-20T23:44:52.398Z,9.02
2017-12-20T23:47:21.592Z,8.99
2017-12-20T23:49:50.814Z,8.99
2017-12-20T23:52:20.182Z,9.00
2017-12-20T23:54:49.435Z,9.05
2017-12-20T23:57:18.622Z,9.08
2017-12-20T23:59:47.845Z,9.09
